createdAt,value
2019-01-27T00:01:07.750Z,94.62
2019-01-27T00:03:36.664Z,94.38
2019-01-27T00:06:05.895Z,94.02
2019-01-27T00:08:35.150Z,93.89
2019-01-27T00:11:04.218Z,94.39
2019-01-27T00:13:33.067Z,94.50
2019-01-27T00:16:01.948Z,94.25
2019-01-27T00:18:30.861Z,94.22
2019-01-27T00:20:59.897Z,93.71
2019-01-27T00:23:28.807Z,93.64
2019-01-27T00:25:57.737Z,93.42
2019-01-27T00:28:26.739Z,93.16
2019-01-27T00:30:55.587Z,92.69
2019-01-27T00:33:24.457Z,93.00
2019-01-27T00:35:53.399Z,93.00
2019-01-27T00:38:22.251Z,92.78
2019-01-27T00:40:51.115Z,92.77
2019-01-27T00:43:20.117Z,92.85
2019-01-27T00:45:49.079Z,92.63
2019-01-27T00:48:17.926Z,92.56
2019-01-27T00:50:46.797Z,92.40
2019-01-27T00:53:15.564Z,92.10
2019-01-27T00:55:44.438Z,92.37
2019-01-27T00:58:13.345Z,92.56
2019-01-27T01:00:42.188Z,92.74
2019-01-27T01:03:11.055Z,92.65
2019-01-27T01:05:39.968Z,92.71
2019-01-27T01:08:09.999Z,92.74
2019-01-27T01:10:39.024Z,92.95
2019-01-27T01:13:08.272Z,93.22
2019-01-27T01:15:37.288Z,93.22
2019-01-27T01:18:06.737Z,93.12
2019-01-27T01:20:35.659Z,93.58
2019-01-27T01:23:05.089Z,94.00
2019-01-27T01:25:34.010Z,94.80
2019-01-27T01:28:02.907Z,95.37
2019-01-27T01:30:32.245Z,95.63
2019-01-27T01:33:01.324Z,96.13
2019-01-27T01:35:30.248Z,96.05
2019-01-27T01:37:59.120Z,95.90
2019-01-27T01:40:28.047Z,96.10
2019-01-27T01:42:56.987Z,96.58
2019-01-27T01:45:30.902Z,97.11
2019-01-27T01:48:00.260Z,97.36
2019-01-27T01:50:29.166Z,97.08
2019-01-27T01:52:58.304Z,96.98
2019-01-27T01:55:27.266Z,96.63
2019-01-27T01:57:56.208Z,96.48
2019-01-27T02:00:26.661Z,96.35
2019-01-27T02:02:55.513Z,96.36
2019-01-27T02:05:24.455Z,96.07
2019-01-27T02:07:53.317Z,95.91
2019-01-27T02:10:22.877Z,95.90
2019-01-27T02:12:52.312Z,95.83
2019-01-27T02:16:08.323Z,95.71
2019-01-27T02:18:38.360Z,95.35
2019-01-27T02:21:07.982Z,95.41
2019-01-27T02:23:37.520Z,95.49
2019-01-27T02:26:07.021Z,95.03
2019-01-27T02:28:36.257Z,95.01
2019-01-27T02:31:05.629Z,94.91
2019-01-27T02:33:34.739Z,95.02
2019-01-27T02:36:03.671Z,94.97
2019-01-27T02:38:32.548Z,94.68
2019-01-27T02:41:01.480Z,94.60
2019-01-27T02:43:30.337Z,94.09
2019-01-27T02:45:59.111Z,93.91
2019-01-27T02:48:27.981Z,93.39
2019-01-27T02:50:56.751Z,92.90
2019-01-27T02:53:25.565Z,93.18
2019-01-27T02:55:54.398Z,92.95
2019-01-27T02:58:23.264Z,92.81
2019-01-27T03:00:52.025Z,92.82
2019-01-27T03:03:20.980Z,92.47
2019-01-27T03:06:17.970Z,92.35
2019-01-27T03:08:56.436Z,92.55
2019-01-27T03:11:25.358Z,93.07
2019-01-27T03:13:54.248Z,93.10
2019-01-27T03:16:23.112Z,92.99
2019-01-27T03:18:52.026Z,92.80
2019-01-27T03:21:20.929Z,92.63
2019-01-27T03:23:49.716Z,92.49
2019-01-27T03:26:18.585Z,92.03
2019-01-27T03:28:47.370Z,92.01
2019-01-27T03:31:16.208Z,91.97
2019-01-27T03:33:45.063Z,91.94
2019-01-27T03:36:13.930Z,91.79
2019-01-27T03:38:43.308Z,91.66
2019-01-27T03:41:12.230Z,91.69
2019-01-27T03:43:41.168Z,91.65
2019-01-27T03:46:10.035Z,91.98
2019-01-27T03:48:38.876Z,92.23
2019-01-27T03:51:07.820Z,92.05
2019-01-27T03:53:36.779Z,91.81
2019-01-27T03:56:05.767Z,92.00
2019-01-27T03:58:34.707Z,91.97
2019-01-27T04:01:03.688Z,92.19
2019-01-27T04:03:32.548Z,92.39
2019-01-27T04:06:01.389Z,92.34
2019-01-27T04:08:30.249Z,92.75
2019-01-27T04:10:59.117Z,92.84
2019-01-27T04:13:27.961Z,92.94
2019-01-27T04:15:56.831Z,93.08
2019-01-27T04:18:25.745Z,93.19
2019-01-27T04:20:54.681Z,93.42
2019-01-27T04:23:23.481Z,93.44
2019-01-27T04:25:52.360Z,93.51
2019-01-27T04:28:21.197Z,93.30
2019-01-27T04:30:50.184Z,93.12
2019-01-27T04:33:19.022Z,92.63
2019-01-27T04:35:47.805Z,92.51
2019-01-27T04:38:16.724Z,92.27
2019-01-27T04:40:45.577Z,91.96
2019-01-27T04:43:15.012Z,91.85
2019-01-27T04:45:43.873Z,91.45
2019-01-27T04:48:12.636Z,91.79
2019-01-27T04:50:41.432Z,91.82
2019-01-27T04:53:10.370Z,92.32
2019-01-27T04:55:39.304Z,92.23
2019-01-27T04:58:08.237Z,92.14
2019-01-27T05:00:37.301Z,92.32
2019-01-27T05:03:25.664Z,93.95
2019-01-27T05:05:54.521Z,94.66
2019-01-27T05:08:23.388Z,95.67
2019-01-27T05:10:52.315Z,96.21
2019-01-27T05:13:21.107Z,96.81
2019-01-27T05:15:49.889Z,97.23
2019-01-27T05:18:18.675Z,97.72
2019-01-27T05:20:47.574Z,98.21
2019-01-27T05:23:16.343Z,98.36
2019-01-27T05:25:45.285Z,98.52
2019-01-27T05:28:14.059Z,98.64
2019-01-27T05:30:43.038Z,98.66
2019-01-27T05:33:11.884Z,98.53
2019-01-27T05:35:40.794Z,98.09
2019-01-27T05:38:09.765Z,98.19
2019-01-27T05:40:38.553Z,98.71
2019-01-27T05:43:07.412Z,98.67
2019-01-27T05:45:36.199Z,98.23
2019-01-27T05:48:05.129Z,98.18
2019-01-27T05:50:33.953Z,98.11
2019-01-27T05:53:02.731Z,98.02
2019-01-27T05:55:31.598Z,97.95
2019-01-27T05:58:00.385Z,98.32
2019-01-27T06:00:39.293Z,98.41
2019-01-27T06:03:08.149Z,98.60
2019-01-27T06:05:37.009Z,98.32
2019-01-27T06:08:06.167Z,98.06
2019-01-27T06:10:34.952Z,97.99
2019-01-27T06:13:03.800Z,97.98
2019-01-27T06:15:32.660Z,98.29
2019-01-27T06:18:01.478Z,98.77
2019-01-27T06:20:30.560Z,98.99
2019-01-27T06:22:59.418Z,98.83
2019-01-27T06:25:28.192Z,98.61
2019-01-27T06:27:57.042Z,98.46
2019-01-27T06:30:26.409Z,97.87
2019-01-27T06:33:26.641Z,97.59
2019-01-27T06:35:55.557Z,97.09
2019-01-27T06:38:24.335Z,96.40
2019-01-27T06:40:53.201Z,95.85
2019-01-27T06:43:22.070Z,95.53
2019-01-27T06:45:50.862Z,94.96
2019-01-27T06:48:19.809Z,94.26
2019-01-27T06:50:48.822Z,94.12
2019-01-27T06:53:17.694Z,93.45
2019-01-27T06:55:46.550Z,92.84
2019-01-27T06:58:15.364Z,92.69
2019-01-27T07:00:58.833Z,92.70
2019-01-27T07:03:31.236Z,92.46
2019-01-27T07:06:19.897Z,92.57
2019-01-27T07:09:17.160Z,92.39
2019-01-27T07:11:55.084Z,92.16
2019-01-27T07:14:50.496Z,91.80
2019-01-27T07:17:50.201Z,91.51
2019-01-27T07:20:34.585Z,91.42
2019-01-27T07:23:31.579Z,91.33
2019-01-27T07:26:13.465Z,91.80
2019-01-27T07:28:57.306Z,91.76
2019-01-27T07:31:51.275Z,91.87
2019-01-27T07:34:30.298Z,91.53
2019-01-27T07:37:18.162Z,91.04
2019-01-27T07:40:17.689Z,90.82
2019-01-27T07:43:00.672Z,90.44
2019-01-27T07:45:40.005Z,90.38
2019-01-27T07:48:24.696Z,90.96
2019-01-27T07:51:01.172Z,91.10
2019-01-27T07:54:01.402Z,90.55
2019-01-27T07:56:51.995Z,90.45
2019-01-27T07:59:28.297Z,90.52
2019-01-27T08:02:16.968Z,90.45
2019-01-27T08:05:07.542Z,90.45
2019-01-27T08:07:58.470Z,90.31
2019-01-27T08:10:49.508Z,90.45
2019-01-27T08:13:37.294Z,89.87
2019-01-27T08:16:24.356Z,89.84
2019-01-27T08:19:08.457Z,89.40
2019-01-27T08:21:44.328Z,89.27
2019-01-27T08:24:32.281Z,89.15
2019-01-27T08:27:21.041Z,89.19
2019-01-27T08:30:05.219Z,89.05
2019-01-27T08:32:52.365Z,89.42
2019-01-27T08:35:32.800Z,89.58
2019-01-27T08:38:12.905Z,89.87
2019-01-27T08:40:51.701Z,89.33
2019-01-27T08:43:38.540Z,88.97
2019-01-27T08:46:12.852Z,88.45
2019-01-27T08:48:41.648Z,88.45
2019-01-27T08:51:10.534Z,87.60
2019-01-27T08:53:39.320Z,87.36
2019-01-27T08:56:08.117Z,86.60
2019-01-27T08:58:36.980Z,86.93
2019-01-27T09:01:18.623Z,86.39
2019-01-27T09:04:15.515Z,86.07
2019-01-27T09:06:53.745Z,86.02
2019-01-27T09:09:52.476Z,85.61
2019-01-27T09:12:33.343Z,85.70
2019-01-27T09:15:27.314Z,84.36
2019-01-27T09:18:21.314Z,83.55
2019-01-27T09:20:58.225Z,83.12
2019-01-27T09:23:33.990Z,82.41
2019-01-27T09:26:17.219Z,82.00
2019-01-27T09:29:06.519Z,81.06
2019-01-27T09:32:03.562Z,81.62
2019-01-27T09:34:54.711Z,80.51
2019-01-27T09:37:32.712Z,81.22
2019-01-27T09:40:19.950Z,81.31
2019-01-27T09:43:13.923Z,80.85
2019-01-27T09:46:10.149Z,79.46
2019-01-27T09:48:53.786Z,79.75
2019-01-27T09:51:40.191Z,79.63
2019-01-27T09:54:21.992Z,78.98
2019-01-27T09:57:12.103Z,78.08
2019-01-27T09:59:45.883Z,77.11
2019-01-27T10:02:48.906Z,76.63
2019-01-27T10:05:34.395Z,76.03
2019-01-27T10:08:14.533Z,77.71
2019-01-27T10:11:00.670Z,78.21
2019-01-27T10:14:03.889Z,79.03
2019-01-27T10:16:47.612Z,78.54
2019-01-27T10:19:42.412Z,79.00
2019-01-27T10:22:20.749Z,78.39
2019-01-27T10:25:05.333Z,77.85
2019-01-27T10:27:53.196Z,78.57
2019-01-27T10:30:49.830Z,78.93
2019-01-27T10:33:27.425Z,79.39
2019-01-27T10:36:26.759Z,79.55
2019-01-27T10:39:01.483Z,79.53
2019-01-27T10:41:51.185Z,78.40
2019-01-27T10:44:42.095Z,77.63
2019-01-27T10:47:19.346Z,78.38
2019-01-27T10:50:10.044Z,77.75
2019-01-27T10:52:57.924Z,75.97
2019-01-27T10:55:47.566Z,73.75
2019-01-27T10:58:28.137Z,74.20
2019-01-27T11:01:10.148Z,74.48
2019-01-27T11:04:03.968Z,74.12
2019-01-27T11:06:51.844Z,75.08
2019-01-27T11:09:38.527Z,75.81
2019-01-27T11:12:27.073Z,75.42
2019-01-27T11:15:13.412Z,76.34
2019-01-27T11:17:50.064Z,74.61
2019-01-27T11:20:39.998Z,74.62
2019-01-27T11:23:39.900Z,75.72
2019-01-27T11:26:24.371Z,75.34
2019-01-27T11:29:08.127Z,73.37
2019-01-27T11:31:54.772Z,71.84
2019-01-27T11:34:32.224Z,72.38
2019-01-27T11:37:23.352Z,73.13
2019-01-27T11:40:01.593Z,73.68
2019-01-27T11:42:48.418Z,73.04
2019-01-27T11:45:39.468Z,72.76
2019-01-27T11:48:34.613Z,72.50
2019-01-27T11:51:14.924Z,72.46
2019-01-27T11:53:43.788Z,72.72
2019-01-27T11:56:12.733Z,69.43
2019-01-27T11:58:41.526Z,71.94
2019-01-27T12:01:10.604Z,70.14
2019-01-27T12:03:39.389Z,68.69
2019-01-27T12:06:08.270Z,69.55
2019-01-27T12:08:37.152Z,68.16
2019-01-27T12:11:06.096Z,69.19
2019-01-27T12:13:35.048Z,68.48
2019-01-27T12:16:04.041Z,69.14
2019-01-27T12:18:32.905Z,68.91
2019-01-27T12:21:01.741Z,70.24
2019-01-27T12:23:30.769Z,68.46
2019-01-27T12:25:59.612Z,69.79
2019-01-27T12:28:28.643Z,69.82
2019-01-27T12:30:57.582Z,69.15
2019-01-27T12:33:26.461Z,69.24
2019-01-27T12:35:55.243Z,67.45
2019-01-27T12:38:24.031Z,66.71
2019-01-27T12:40:52.805Z,68.50
2019-01-27T12:43:21.752Z,68.78
2019-01-27T12:45:50.591Z,70.42
2019-01-27T12:48:19.480Z,70.84
2019-01-27T12:50:48.345Z,72.47
2019-01-27T12:53:17.166Z,73.23
2019-01-27T12:55:45.946Z,74.77
2019-01-27T12:58:14.814Z,74.66
2019-01-27T13:00:50.157Z,74.78
2019-01-27T13:03:18.945Z,74.41
2019-01-27T13:05:47.876Z,75.34
2019-01-27T13:08:16.825Z,73.81
2019-01-27T13:10:45.668Z,73.49
2019-01-27T13:13:14.457Z,74.33
2019-01-27T13:15:43.312Z,74.98
2019-01-27T13:18:12.237Z,74.29
2019-01-27T13:20:41.510Z,74.93
2019-01-27T13:23:10.302Z,74.51
2019-01-27T13:25:39.074Z,75.58
2019-01-27T13:28:08.023Z,75.57
2019-01-27T13:30:36.938Z,75.66
2019-01-27T13:33:05.785Z,75.73
2019-01-27T13:35:38.751Z,75.16
2019-01-27T13:38:05.404Z,75.30
2019-01-27T13:40:34.358Z,75.04
2019-01-27T13:43:04.306Z,74.43
2019-01-27T13:45:33.272Z,74.60
2019-01-27T13:48:02.074Z,75.10
2019-01-27T13:50:30.931Z,74.29
2019-01-27T13:52:59.789Z,72.55
2019-01-27T13:55:29.930Z,72.99
2019-01-27T13:57:59.049Z,74.32
2019-01-27T14:00:30.496Z,73.78
2019-01-27T14:02:59.537Z,74.25
2019-01-27T14:05:28.465Z,73.59
2019-01-27T14:07:57.352Z,73.37
2019-01-27T14:10:27.227Z,74.19
2019-01-27T14:12:56.261Z,74.73
2019-01-27T14:15:27.479Z,74.91
2019-01-27T14:17:56.567Z,74.80
2019-01-27T14:20:25.469Z,75.11
2019-01-27T14:22:54.738Z,74.36
2019-01-27T14:25:25.042Z,75.02
2019-01-27T14:27:53.886Z,74.51
2019-01-27T14:30:25.395Z,74.17
2019-01-27T14:32:54.255Z,74.28
2019-01-27T14:35:23.324Z,73.55
2019-01-27T14:37:52.169Z,73.25
2019-01-27T14:40:23.171Z,72.32
2019-01-27T14:42:52.028Z,72.98
2019-01-27T14:45:23.496Z,73.57
2019-01-27T14:47:52.416Z,73.41
2019-01-27T14:50:29.653Z,72.67
2019-01-27T14:52:58.772Z,72.69
2019-01-27T14:55:27.744Z,71.94
2019-01-27T14:57:57.884Z,71.84
2019-01-27T15:00:29.447Z,71.30
2019-01-27T15:02:58.423Z,71.74
2019-01-27T15:05:27.349Z,71.73
2019-01-27T15:07:56.204Z,71.53
2019-01-27T15:10:25.245Z,70.94
2019-01-27T15:12:54.093Z,70.82
2019-01-27T15:15:23.597Z,71.34
2019-01-27T15:17:52.520Z,71.78
2019-01-27T15:20:27.216Z,72.65
2019-01-27T15:22:56.058Z,72.55
2019-01-27T15:25:25.004Z,72.30
2019-01-27T15:27:53.855Z,71.97
2019-01-27T15:30:25.102Z,72.76
2019-01-27T15:32:53.995Z,73.49
2019-01-27T15:35:23.066Z,75.70
2019-01-27T15:37:51.909Z,75.63
2019-01-27T15:40:20.950Z,76.35
2019-01-27T15:42:49.823Z,76.14
2019-01-27T15:45:23.718Z,76.32
2019-01-27T15:47:52.763Z,77.10
2019-01-27T15:50:23.355Z,77.46
2019-01-27T15:52:52.293Z,77.48
2019-01-27T15:55:21.841Z,78.46
2019-01-27T15:57:50.979Z,78.42
2019-01-27T16:00:22.467Z,78.97
2019-01-27T16:02:51.427Z,79.51
2019-01-27T16:05:21.225Z,79.34
2019-01-27T16:07:50.388Z,79.27
2019-01-27T16:10:20.666Z,79.77
2019-01-27T16:12:49.855Z,80.53
2019-01-27T16:15:24.902Z,81.47
2019-01-27T16:17:54.002Z,82.49
2019-01-27T16:20:23.629Z,82.55
2019-01-27T16:23:16.029Z,82.74
2019-01-27T16:25:45.141Z,84.15
2019-01-27T16:28:14.032Z,84.37
2019-01-27T16:30:53.919Z,85.80
2019-01-27T16:33:35.530Z,85.88
2019-01-27T16:36:04.852Z,86.26
2019-01-27T16:38:33.797Z,86.36
2019-01-27T16:41:02.754Z,86.71
2019-01-27T16:43:31.659Z,87.14
2019-01-27T16:46:00.708Z,87.17
2019-01-27T16:48:29.580Z,86.94
2019-01-27T16:50:58.349Z,86.29
2019-01-27T16:53:27.136Z,86.63
2019-01-27T16:55:56.120Z,86.56
2019-01-27T16:58:25.086Z,86.37
2019-01-27T17:00:54.289Z,86.85
2019-01-27T17:03:23.163Z,86.70
2019-01-27T17:05:52.102Z,85.75
2019-01-27T17:08:20.900Z,85.86
2019-01-27T17:10:49.667Z,85.97
2019-01-27T17:13:18.530Z,86.03
2019-01-27T17:15:47.444Z,86.05
2019-01-27T17:18:16.244Z,86.17
2019-01-27T17:20:45.158Z,86.31
2019-01-27T17:23:14.039Z,86.53
2019-01-27T17:25:42.896Z,86.53
2019-01-27T17:28:12.876Z,86.53
2019-01-27T17:30:41.907Z,86.69
2019-01-27T17:33:10.870Z,86.92
2019-01-27T17:35:39.821Z,87.03
2019-01-27T17:38:08.820Z,86.96
2019-01-27T17:40:37.764Z,86.90
2019-01-27T17:43:06.617Z,86.76
2019-01-27T17:45:35.533Z,86.82
2019-01-27T17:48:05.002Z,87.27
2019-01-27T17:50:34.016Z,87.45
2019-01-27T17:53:02.947Z,87.93
2019-01-27T17:55:44.782Z,88.13
2019-01-27T17:58:53.964Z,88.07
2019-01-27T18:01:35.796Z,88.54
2019-01-27T18:04:22.999Z,88.53
2019-01-27T18:07:16.848Z,88.59
2019-01-27T18:09:53.250Z,89.18
2019-01-27T18:12:30.334Z,89.21
2019-01-27T18:14:59.149Z,89.42
2019-01-27T18:17:27.928Z,89.75
2019-01-27T18:19:56.802Z,90.20
2019-01-27T18:22:25.656Z,91.17
2019-01-27T18:24:54.433Z,92.31
2019-01-27T18:27:23.293Z,93.16
2019-01-27T18:29:52.092Z,94.37
2019-01-27T18:32:21.064Z,94.98
2019-01-27T18:34:49.971Z,96.19
2019-01-27T18:37:18.795Z,95.55
2019-01-27T18:39:47.721Z,95.76
2019-01-27T18:42:16.556Z,95.69
2019-01-27T18:44:45.345Z,95.80
2019-01-27T18:47:14.863Z,95.89
2019-01-27T18:49:43.665Z,95.93
2019-01-27T18:52:12.512Z,96.09
2019-01-27T18:54:59.072Z,96.07
2019-01-27T18:57:33.527Z,96.22
2019-01-27T19:00:17.518Z,97.13
2019-01-27T19:03:04.305Z,98.02
2019-01-27T19:05:47.084Z,98.05
2019-01-27T19:08:28.136Z,98.23
2019-01-27T19:11:06.456Z,99.11
2019-01-27T19:13:57.048Z,98.65
2019-01-27T19:16:36.110Z,98.46
2019-01-27T19:19:15.667Z,98.14
2019-01-27T19:22:06.683Z,99.54
2019-01-27T19:24:49.905Z,100.00
2019-01-27T19:27:40.793Z,100.00
2019-01-27T19:30:23.444Z,99.84
2019-01-27T19:33:15.310Z,98.81
2019-01-27T19:36:03.890Z,98.98
2019-01-27T19:38:40.343Z,98.33
2019-01-27T19:41:31.047Z,98.09
2019-01-27T19:44:17.445Z,98.38
2019-01-27T19:47:14.966Z,98.53
2019-01-27T19:50:04.782Z,99.07
2019-01-27T19:52:50.244Z,99.19
2019-01-27T19:55:36.368Z,99.48
2019-01-27T19:58:27.086Z,100.00
2019-01-27T20:01:17.984Z,100.00
2019-01-27T20:04:08.747Z,100.00
2019-01-27T20:06:58.413Z,100.00
2019-01-27T20:09:34.585Z,100.00
2019-01-27T20:12:28.360Z,100.00
2019-01-27T20:15:16.177Z,100.00
2019-01-27T20:18:03.253Z,100.00
2019-01-27T20:20:57.303Z,100.00
2019-01-27T20:23:43.972Z,100.00
2019-01-27T20:26:22.697Z,100.00
2019-01-27T20:29:08.607Z,100.00
2019-01-27T20:31:59.297Z,100.00
2019-01-27T20:34:37.634Z,100.00
2019-01-27T20:37:29.187Z,100.00
2019-01-27T20:40:15.691Z,100.00
2019-01-27T20:42:57.199Z,100.00
2019-01-27T20:45:52.209Z,100.00
2019-01-27T20:48:30.533Z,100.00
2019-01-27T20:51:27.354Z,100.00
2019-01-27T20:54:03.036Z,100.00
2019-01-27T20:56:40.972Z,100.00
2019-01-27T20:59:20.412Z,100.00
2019-01-27T21:02:07.971Z,100.00
2019-01-27T21:04:59.085Z,100.00
2019-01-27T21:07:49.897Z,100.00
2019-01-27T21:10:38.468Z,100.00
2019-01-27T21:13:26.308Z,100.00
2019-01-27T21:16:04.633Z,100.00
2019-01-27T21:18:37.537Z,100.00
2019-01-27T21:21:06.489Z,100.00
2019-01-27T21:23:35.460Z,100.00
2019-01-27T21:26:04.722Z,100.00
2019-01-27T21:28:33.597Z,100.00
2019-01-27T21:31:02.465Z,100.00
2019-01-27T21:33:31.248Z,100.00
2019-01-27T21:36:00.290Z,100.00
2019-01-27T21:38:29.250Z,100.00
2019-01-27T21:40:58.049Z,100.00
2019-01-27T21:43:26.939Z,100.00
2019-01-27T21:45:55.801Z,100.00
2019-01-27T21:48:24.627Z,100.00
2019-01-27T21:50:53.474Z,100.00
2019-01-27T21:53:22.288Z,100.00
2019-01-27T21:55:51.144Z,100.00
2019-01-27T21:58:21.204Z,100.00
2019-01-27T22:02:38.789Z,100.00
2019-01-27T22:05:08.067Z,100.00
2019-01-27T22:07:36.958Z,100.00
2019-01-27T22:10:06.926Z,100.00
2019-01-27T22:12:35.739Z,100.00
2019-01-27T22:15:05.387Z,100.00
2019-01-27T22:17:34.261Z,100.00
2019-01-27T22:20:03.105Z,100.00
2019-01-27T22:22:31.992Z,100.00
2019-01-27T22:25:00.766Z,100.00
2019-01-27T22:27:29.641Z,100.00
2019-01-27T22:29:58.453Z,100.00
2019-01-27T22:32:27.430Z,100.00
2019-01-27T22:34:56.207Z,100.00
2019-01-27T22:37:24.997Z,100.00
2019-01-27T22:39:53.797Z,100.00
2019-01-27T22:42:22.658Z,100.00
2019-01-27T22:44:51.445Z,100.00
2019-01-27T22:47:20.287Z,100.00
2019-01-27T22:49:49.129Z,100.00
2019-01-27T22:52:17.995Z,100.00
2019-01-27T22:54:46.781Z,100.00
2019-01-27T22:57:15.561Z,100.00
2019-01-27T22:59:44.429Z,100.00
2019-01-27T23:02:13.491Z,100.00
2019-01-27T23:04:42.273Z,100.00
2019-01-27T23:07:11.249Z,100.00
2019-01-27T23:09:40.058Z,100.00
2019-01-27T23:12:08.917Z,100.00
2019-01-27T23:14:37.782Z,100.00
2019-01-27T23:17:06.629Z,100.00
2019-01-27T23:19:35.430Z,100.00
2019-01-27T23:22:04.465Z,100.00
2019-01-27T23:24:33.327Z,100.00
2019-01-27T23:27:02.184Z,100.00
2019-01-27T23:29:31.051Z,100.00
2019-01-27T23:31:59.892Z,100.00
2019-01-27T23:34:28.699Z,100.00
2019-01-27T23:36:57.520Z,100.00
2019-01-27T23:39:26.294Z,100.00
2019-01-27T23:41:55.068Z,100.00
2019-01-27T23:44:24.502Z,100.00
2019-01-27T23:46:53.278Z,100.00
2019-01-27T23:49:22.065Z,100.00
2019-01-27T23:51:50.838Z,100.00
2019-01-27T23:54:19.634Z,100.00
2019-01-27T23:56:48.470Z,100.00
2019-01-27T23:59:17.388Z,100.00
